Time;durP1;ratioP1;P1;durP2;ratioP2;P2;SDS_P1;SDS_P2;PMS_P1;PMS_P2;Temp;Humidity;BMP_temperature;BMP_pressure;BME280_temperature;BME280_humidity;BME280_pressure;Samples;Min_cycle;Max_cycle;Signal;HPM_P1;HPM_P2
2022/08/05 00:03:29;;;;;;;;;;;;;;;;;;10544626;28;20003;-62
2022/08/05 00:08:31;;;;;;;;;;;;;;;;;;10545080;28;19936;-62
2022/08/05 00:13:36;;;;;;;;;;;;;;;;;;10543612;28;20367;-62
2022/08/05 00:18:40;;;;;;;;;;;;;;;;;;10543189;28;20338;-62
2022/08/05 00:23:43;;;;;;;;;;;;;;;;;;10543609;28;19924;-62
2022/08/05 00:28:47;;;;;;;;;;;;;;;;;;10562675;28;19924;-61
2022/08/05 00:33:50;;;;;;;;;;;;;;;;;;10584964;28;19923;-62
2022/08/05 00:39:12;;;;;;;;;;;;;;;;;;10584724;28;20337;-62
2022/08/05 00:44:15;;;;;;;;;;;;;;;;;;10552851;28;19969;-62
2022/08/05 00:49:18;;;;;;;;;;;;;;;;;;10542757;28;19924;-61
2022/08/05 00:54:20;;;;;;;;;;;;;;;;;;10542010;28;19928;-62
2022/08/05 00:59:23;;;;;;;;;;;;;;;;;;10583282;28;19931;-62
2022/08/05 01:04:25;;;;;;;;;;;;;;;;;;10582983;28;19999;-62
2022/08/05 01:09:30;;;;;;;;;;;;;;;;;;10583107;28;20424;-62
2022/08/05 01:14:32;;;;;;;;;;;;;;;;;;10584051;28;19924;-62
2022/08/05 01:19:34;;;;;;;;;;;;;;;;;;10583901;28;19930;-62
2022/08/05 01:24:56;;;;;;;;;;;;;;;;;;10557202;28;19968;-61
2022/08/05 01:29:58;;;;;;;;;;;;;;;;;;10583257;28;19924;-62
2022/08/05 01:35:00;;;;;;;;;;;;;;;;;;10583425;28;19934;-62
2022/08/05 01:40:02;;;;;;;;;;;;;;;;;;10582162;28;20271;-62
2022/08/05 01:45:05;;;;;;;;;;;;;;;;;;10570989;28;19967;-62
2022/08/05 01:50:09;;;;;;;;;;;;;;;;;;10553204;28;19924;-62
2022/08/05 01:55:15;;;;;;;;;;;;;;;;;;10582088;28;20272;-62
2022/08/05 02:00:18;;;;;;;;;;;;;;;;;;10582548;28;19930;-62
2022/08/05 02:05:20;;;;;;;;;;;;;;;;;;10567243;28;19931;-62
2022/08/05 02:10:24;;;;;;;;;;;;;;;;;;10539644;28;20272;-62
2022/08/05 02:15:29;;;;;;;;;;;;;;;;;;10542384;28;20126;-62
2022/08/05 02:20:34;;;;;;;;;;;;;;;;;;10569783;28;19923;-62
2022/08/05 02:25:40;;;;;;;;;;;;;;;;;;10578363;28;19924;-62
2022/08/05 02:30:50;;;;;;;;;;;;;;;;;;10561120;28;20006;-62
2022/08/05 02:35:55;;;;;;;;;;;;;;;;;;10590380;28;19924;-62
2022/08/05 02:41:01;;;;;;;;;;;;;;;;;;10590224;28;19928;-63
2022/08/05 02:46:15;;;;;;;;;;;;;;;;;;10587585;28;19970;-63
2022/08/05 02:51:17;;;;;;;;;;;;;;;;;;10588897;28;19931;-62
2022/08/05 02:56:19;;;;;;;;;;;;;;;;;;10589099;28;19930;-62
2022/08/05 03:01:21;;;;;;;;;;;;;;;;;;10589361;28;19935;-63
2022/08/05 03:06:24;;;;;;;;;;;;;;;;;;10549087;28;19924;-63
2022/08/05 03:11:46;;;;;;;;;;;;;;;;;;10546148;28;19928;-63
2022/08/05 03:16:57;;;;;;;;;;;;;;;;;;10503988;28;20011;-63
2022/08/05 03:22:00;;;;;;;;;;;;;;;;;;10503855;28;20371;-63
2022/08/05 03:27:02;;;;;;;;;;;;;;;;;;10532185;28;19928;-63
2022/08/05 03:32:04;;;;;;;;;;;;;;;;;;10545355;28;19924;-63
2022/08/05 03:37:06;;;;;;;;;;;;;;;;;;10545780;28;19931;-63
2022/08/05 03:42:08;;;;;;;;;;;;;;;;;;10547478;28;19924;-63
2022/08/05 03:47:10;;;;;;;;;;;;;;;;;;10558351;28;19924;-63
2022/08/05 03:52:14;;;;;;;;;;;;;;;;;;10546480;28;20363;-63
2022/08/05 03:57:36;;;;;;;;;;;;;;;;;;10587395;28;19973;-63
2022/08/05 04:02:43;;;;;;;;;;;;;;;;;;10574614;28;20331;-63
2022/08/05 04:07:53;;;;;;;;;;;;;;;;;;10562230;28;19931;-63
2022/08/05 04:12:59;;;;;;;;;;;;;;;;;;10572916;28;19928;-63
2022/08/05 04:18:02;;;;;;;;;;;;;;;;;;10544144;28;19928;-63
2022/08/05 04:23:04;;;;;;;;;;;;;;;;;;10569706;28;19930;-63
2022/08/05 04:28:06;;;;;;;;;;;;;;;;;;10579486;28;19924;-63
2022/08/05 04:33:12;;;;;;;;;;;;;;;;;;10570848;28;20016;-63
2022/08/05 04:38:14;;;;;;;;;;;;;;;;;;10543789;28;19931;-63
2022/08/05 04:43:16;;;;;;;;;;;;;;;;;;10557226;28;19955;-63
2022/08/05 04:48:18;;;;;;;;;;;;;;;;;;10582779;28;20282;-63
2022/08/05 04:53:28;;;;;;;;;;;;;;;;;;10569041;28;19924;-63
2022/08/05 04:58:35;;;;;;;;;;;;;;;;;;10558151;28;19924;-63
2022/08/05 05:03:37;;;;;;;;;;;;;;;;;;10567574;28;19924;-63
2022/08/05 05:08:43;;;;;;;;;;;;;;;;;;10543621;28;19924;-63
2022/08/05 05:13:45;;;;;;;;;;;;;;;;;;10558768;28;20390;-63
2022/08/05 05:18:47;;;;;;;;;;;;;;;;;;10564227;28;19924;-63
2022/08/05 05:24:09;;;;;;;;;;;;;;;;;;10560747;28;19924;-63
2022/08/05 05:29:11;;;;;;;;;;;;;;;;;;10583272;28;19931;-63
2022/08/05 05:34:15;;;;;;;;;;;;;;;;;;10560984;28;19971;-63
2022/08/05 05:39:22;;;;;;;;;;;;;;;;;;10540432;28;19974;-63
2022/08/05 05:44:24;;;;;;;;;;;;;;;;;;10549084;22;20356;-64
2022/08/05 05:49:37;;;;;;;;;;;;;;;;;;10498339;28;19932;-64
2022/08/05 05:54:40;;;;;;;;;;;;;;;;;;10523058;28;19924;-64
2022/08/05 05:59:52;;;;;;;;;;;;;;;;;;10539006;28;19969;-64
2022/08/05 06:04:54;;;;;;;;;;;;;;;;;;10531036;28;19935;-64
2022/08/05 06:09:56;;;;;;;;;;;;;;;;;;10499058;28;20302;-64
2022/08/05 06:15:05;;;;;;;;;;;;;;;;;;10498649;28;19931;-64
2022/08/05 06:20:08;;;;;;;;;;;;;;;;;;10498935;28;19979;-64
2022/08/05 06:25:22;;;;;;;;;;;;;;;;;;10499656;28;20007;-64
2022/08/05 06:30:44;;;;;;;;;;;;;;;;;;10524918;28;19928;-64
2022/08/05 06:35:46;;;;;;;;;;;;;;;;;;10539973;28;19924;-64
2022/08/05 06:41:05;;;;;;;;;;;;;;;;;;10540968;28;19924;-64
2022/08/05 06:46:08;;;;;;;;;;;;;;;;;;10541362;28;20006;-64
2022/08/05 06:51:11;;;;;;;;;;;;;;;;;;10541953;28;20291;-64
2022/08/05 06:56:13;;;;;;;;;;;;;;;;;;10538929;28;19935;-64
2022/08/05 07:01:27;;;;;;;;;;;;;;;;;;10541062;28;19924;-64
2022/08/05 07:06:33;;;;;;;;;;;;;;;;;;10548305;28;20014;-64
2022/08/05 07:11:35;;;;;;;;;;;;;;;;;;10546829;28;19931;-64
2022/08/05 07:16:50;;;;;;;;;;;;;;;;;;10547142;28;19924;-65
2022/08/05 07:22:12;;;;;;;;;;;;;;;;;;10546698;28;19934;-65
2022/08/05 07:27:16;;;;;;;;;;;;;;;;;;10547313;28;19974;-65
2022/08/05 07:32:18;;;;;;;;;;;;;;;;;;10546066;28;19928;-65
2022/08/05 07:37:27;;;;;;;;;;;;;;;;;;10547078;28;19977;-65
2022/08/05 07:42:30;;;;;;;;;;;;;;;;;;10572203;28;20361;-64
2022/08/05 07:47:34;;;;;;;;;;;;;;;;;;10547759;28;19986;-65
2022/08/05 07:52:43;;;;;;;;;;;;;;;;;;10546432;28;19977;-65
2022/08/05 07:57:45;;;;;;;;;;;;;;;;;;10545102;28;19928;-65
2022/08/05 08:02:57;;;;;;;;;;;;;;;;;;10546927;28;19924;-64
2022/08/05 08:08:16;;;;;;;;;;;;;;;;;;10573141;28;19924;-65
2022/08/05 08:13:20;;;;;;;;;;;;;;;;;;10585328;28;19977;-65
2022/08/05 08:18:30;;;;;;;;;;;;;;;;;;10584207;28;19977;-65
2022/08/05 08:23:32;;;;;;;;;;;;;;;;;;10586288;28;19931;-65
2022/08/05 08:28:54;;;;;;;;;;;;;;;;;;10583983;28;19980;-65
2022/08/05 08:34:00;;;;;;;;;;;;;;;;;;10580607;28;19981;-65
2022/08/05 08:39:02;;;;;;;;;;;;;;;;;;10546489;28;19927;-65
2022/08/05 08:44:05;;;;;;;;;;;;;;;;;;10542542;28;20423;-65
2022/08/05 08:49:27;;;;;;;;;;;;;;;;;;10543025;28;19924;-65
2022/08/05 08:54:49;;;;;;;;;;;;;;;;;;10542120;28;20390;-65
2022/08/05 08:59:51;;;;;;;;;;;;;;;;;;10548528;28;20398;-65
2022/08/05 09:04:56;;;;;;;;;;;;;;;;;;10582876;28;19959;-65
2022/08/05 09:10:18;;;;;;;;;;;;;;;;;;10584301;28;19930;-65
2022/08/05 09:15:21;;;;;;;;;;;;;;;;;;10574984;28;19931;-65
2022/08/05 09:20:23;;;;;;;;;;;;;;;;;;10575172;28;19935;-65
2022/08/05 09:25:38;;;;;;;;;;;;;;;;;;10573843;28;20013;-65
2022/08/05 09:31:03;;;;;;;;;;;;;;;;;;10560033;28;19951;-65
2022/08/05 09:36:25;;;;;;;;;;;;;;;;;;10576358;28;19936;-65
2022/08/05 09:41:28;;;;;;;;;;;;;;;;;;10581233;28;19924;-64
2022/08/05 09:46:34;;;;;;;;;;;;;;;;;;10558519;28;19933;-64
2022/08/05 09:51:36;;;;;;;;;;;;;;;;;;10540142;28;20382;-65
2022/08/05 09:56:39;;;;;;;;;;;;;;;;;;10541213;28;20310;-65
2022/08/05 10:01:41;;;;;;;;;;;;;;;;;;10540623;28;19932;-65
2022/08/05 10:06:46;;;;;;;;;;;;;;;;;;10540912;28;20436;-65
2022/08/05 10:11:56;;;;;;;;;;;;;;;;;;10539718;28;20386;-65
2022/08/05 10:16:58;;;;;;;;;;;;;;;;;;10540673;28;19928;-65
2022/08/05 10:22:00;;;;;;;;;;;;;;;;;;10540080;28;19924;-67
2022/08/05 10:27:03;;;;;;;;;;;;;;;;;;10540421;28;19924;-65
2022/08/05 10:32:05;;;;;;;;;;;;;;;;;;10539989;28;19973;-65
2022/08/05 10:37:29;;;;;;;;;;;;;;;;;;10544373;28;19978;-65
2022/08/05 10:42:41;;;;;;;;;;;;;;;;;;10547342;28;19924;-66
2022/08/05 10:47:45;;;;;;;;;;;;;;;;;;10548194;28;19970;-65
2022/08/05 10:52:52;;;;;;;;;;;;;;;;;;10550084;28;20544;-66
2022/08/05 10:57:54;;;;;;;;;;;;;;;;;;10546508;28;20375;-65
2022/08/05 11:02:56;;;;;;;;;;;;;;;;;;10547225;28;19931;-65
2022/08/05 11:07:59;;;;;;;;;;;;;;;;;;10546399;28;19993;-65
2022/08/05 11:13:02;;;;;;;;;;;;;;;;;;10546322;28;19924;-65
2022/08/05 11:18:04;;;;;;;;;;;;;;;;;;10546750;28;19931;-65
2022/08/05 11:23:07;;;;;;;;;;;;;;;;;;10545931;28;19924;-66
2022/08/05 11:28:13;;;;;;;;;;;;;;;;;;10546350;28;19931;-65
2022/08/05 11:33:18;;;;;;;;;;;;;;;;;;10546154;28;19970;-65
2022/08/05 11:38:22;;;;;;;;;;;;;;;;;;10544205;28;19924;-66
2022/08/05 11:43:32;;;;;;;;;;;;;;;;;;10545522;28;19931;-65
2022/08/05 11:48:54;;;;;;;;;;;;;;;;;;10544172;28;19928;-65
2022/08/05 11:53:56;;;;;;;;;;;;;;;;;;10545287;28;19931;-65
2022/08/05 11:58:58;;;;;;;;;;;;;;;;;;10544475;28;19946;-65
2022/08/05 12:04:00;;;;;;;;;;;;;;;;;;10544922;28;19924;-65
2022/08/05 12:09:02;;;;;;;;;;;;;;;;;;10544679;28;19924;-65
2022/08/05 12:14:05;;;;;;;;;;;;;;;;;;10544499;28;19934;-64
2022/08/05 12:19:07;;;;;;;;;;;;;;;;;;10543676;28;20393;-65
2022/08/05 12:24:09;;;;;;;;;;;;;;;;;;10543392;28;20329;-65
2022/08/05 12:29:12;;;;;;;;;;;;;;;;;;10543807;28;19931;-65
2022/08/05 12:34:17;;;;;;;;;;;;;;;;;;10543063;28;19924;-65
2022/08/05 12:39:21;;;;;;;;;;;;;;;;;;10542061;28;19924;-64
2022/08/05 12:44:24;;;;;;;;;;;;;;;;;;10542830;28;19928;-64
2022/08/05 12:49:34;;;;;;;;;;;;;;;;;;10542468;28;20294;-65
2022/08/05 12:54:56;;;;;;;;;;;;;;;;;;10542452;28;19950;-65
2022/08/05 12:59:58;;;;;;;;;;;;;;;;;;10541811;28;20389;-64
2022/08/05 13:05:21;;;;;;;;;;;;;;;;;;10542390;28;19977;-65
2022/08/05 13:10:23;;;;;;;;;;;;;;;;;;10542181;28;19953;-63
2022/08/05 13:15:25;;;;;;;;;;;;;;;;;;10542146;28;19928;-65
2022/08/05 13:20:43;;;;;;;;;;;;;;;;;;10541977;28;19931;-65
2022/08/05 13:25:45;;;;;;;;;;;;;;;;;;10541087;28;20291;-64
2022/08/05 13:30:54;;;;;;;;;;;;;;;;;;10539773;28;19986;-65
2022/08/05 13:35:56;;;;;;;;;;;;;;;;;;10539604;28;19924;-65
2022/08/05 13:40:58;;;;;;;;;;;;;;;;;;10541245;28;19924;-64
2022/08/05 13:46:00;;;;;;;;;;;;;;;;;;10540306;28;20389;-64
2022/08/05 13:51:02;;;;;;;;;;;;;;;;;;10540863;28;19924;-64
2022/08/05 13:56:07;;;;;;;;;;;;;;;;;;10540831;28;19928;-64
2022/08/05 14:01:19;;;;;;;;;;;;;;;;;;10540761;28;19924;-64
2022/08/05 14:06:26;;;;;;;;;;;;;;;;;;10540564;28;19925;-64
2022/08/05 14:11:29;;;;;;;;;;;;;;;;;;10544462;28;19931;-64
2022/08/05 14:16:32;;;;;;;;;;;;;;;;;;10554344;28;19931;-64
2022/08/05 14:21:34;;;;;;;;;;;;;;;;;;10554234;28;19924;-64
2022/08/05 14:26:56;;;;;;;;;;;;;;;;;;10574008;28;19981;-64
2022/08/05 14:32:18;;;;;;;;;;;;;;;;;;10595928;28;19930;-64
2022/08/05 14:37:28;;;;;;;;;;;;;;;;;;10553716;28;20298;-64
2022/08/05 14:42:46;;;;;;;;;;;;;;;;;;10569715;28;19924;-64
2022/08/05 14:47:48;;;;;;;;;;;;;;;;;;10595252;28;20400;-64
2022/08/05 14:53:06;;;;;;;;;;;;;;;;;;10570210;28;20272;-64
2022/08/05 14:58:08;;;;;;;;;;;;;;;;;;10595084;28;20282;-64
2022/08/05 15:03:12;;;;;;;;;;;;;;;;;;10594985;27;20443;-64
2022/08/05 15:08:14;;;;;;;;;;;;;;;;;;10595573;28;19923;-64
2022/08/05 15:13:18;;;;;;;;;;;;;;;;;;10595569;27;19923;-64
2022/08/05 15:18:21;;;;;;;;;;;;;;;;;;10581956;28;20394;-63
2022/08/05 15:23:23;;;;;;;;;;;;;;;;;;10575336;28;19930;-64
2022/08/05 15:28:25;;;;;;;;;;;;;;;;;;10588490;28;19928;-63
2022/08/05 15:33:28;;;;;;;;;;;;;;;;;;10588755;28;19931;-64
2022/08/05 15:38:50;;;;;;;;;;;;;;;;;;10586158;28;19927;-64
2022/08/05 15:44:12;;;;;;;;;;;;;;;;;;10585884;28;19973;-64
2022/08/05 15:49:15;;;;;;;;;;;;;;;;;;10587625;28;20027;-64
2022/08/05 15:54:27;;;;;;;;;;;;;;;;;;10586619;28;19924;-64
2022/08/05 15:59:35;;;;;;;;;;;;;;;;;;10586170;28;19928;-64
2022/08/05 16:04:39;;;;;;;;;;;;;;;;;;10584713;28;19970;-63
2022/08/05 16:09:41;;;;;;;;;;;;;;;;;;10555661;28;19931;-64
2022/08/05 16:14:44;;;;;;;;;;;;;;;;;;10582703;28;19927;-64
2022/08/05 16:19:46;;;;;;;;;;;;;;;;;;10585337;28;19977;-63
2022/08/05 16:25:06;;;;;;;;;;;;;;;;;;10582401;28;20022;-64
2022/08/05 16:30:11;;;;;;;;;;;;;;;;;;10574943;28;19924;-64
2022/08/05 16:35:14;;;;;;;;;;;;;;;;;;10575059;28;20363;-63
2022/08/05 16:40:16;;;;;;;;;;;;;;;;;;10553533;28;19924;-63
2022/08/05 16:45:29;;;;;;;;;;;;;;;;;;10582811;28;20015;-64
2022/08/05 16:50:52;;;;;;;;;;;;;;;;;;10584772;28;19949;-64
2022/08/05 16:55:54;;;;;;;;;;;;;;;;;;10583400;28;19923;-64
2022/08/05 17:00:56;;;;;;;;;;;;;;;;;;10569655;28;19928;-64
2022/08/05 17:05:59;;;;;;;;;;;;;;;;;;10573991;28;19977;-63
2022/08/05 17:11:01;;;;;;;;;;;;;;;;;;10576387;28;19967;-64
2022/08/05 17:16:03;;;;;;;;;;;;;;;;;;10561789;28;19924;-63
2022/08/05 17:21:25;;;;;;;;;;;;;;;;;;10526332;28;19997;-63
2022/08/05 17:26:36;;;;;;;;;;;;;;;;;;10571748;28;19928;-63
2022/08/05 17:31:39;;;;;;;;;;;;;;;;;;10566891;28;20375;-64
2022/08/05 17:36:58;;;;;;;;;;;;;;;;;;10581667;28;19923;-63
2022/08/05 17:42:00;;;;;;;;;;;;;;;;;;10583377;27;19924;-63
2022/08/05 17:47:21;;;;;;;;;;;;;;;;;;10581614;28;20374;-64
2022/08/05 17:52:23;;;;;;;;;;;;;;;;;;10578571;28;19970;-63
2022/08/05 17:57:26;;;;;;;;;;;;;;;;;;10568756;28;20014;-64
2022/08/05 18:02:28;;;;;;;;;;;;;;;;;;10600448;22;20128;-72
2022/08/05 18:07:30;;;;;;;;;;;;;;;;;;10582010;28;20377;-71
2022/08/05 18:12:33;;;;;;;;;;;;;;;;;;10566400;28;19924;-72
2022/08/05 18:17:35;;;;;;;;;;;;;;;;;;10562903;28;19924;-72
2022/08/05 18:22:57;;;;;;;;;;;;;;;;;;10549223;28;19924;-73
2022/08/05 18:28:01;;;;;;;;;;;;;;;;;;10582240;28;19923;-72
2022/08/05 18:33:06;;;;;;;;;;;;;;;;;;10581431;28;20263;-73
2022/08/05 18:38:08;;;;;;;;;;;;;;;;;;10551609;28;19938;-73
2022/08/05 18:43:10;;;;;;;;;;;;;;;;;;10552598;28;20335;-72
2022/08/05 18:48:17;;;;;;;;;;;;;;;;;;10539757;28;20006;-73
2022/08/05 18:53:32;;;;;;;;;;;;;;;;;;10539572;28;19931;-72
2022/08/05 18:58:35;;;;;;;;;;;;;;;;;;10546855;28;20290;-73
2022/08/05 19:03:37;;;;;;;;;;;;;;;;;;10615568;27;19973;-73
2022/08/05 19:08:54;;;;;;;;;;;;;;;;;;10614185;27;19997;-72
2022/08/05 19:13:56;;;;;;;;;;;;;;;;;;10631776;27;19924;-72
2022/08/05 19:19:02;;;;;;;;;;;;;;;;;;10628240;27;20327;-73
2022/08/05 19:24:04;;;;;;;;;;;;;;;;;;10629655;27;19923;-73
2022/08/05 19:29:13;;;;;;;;;;;;;;;;;;10611635;27;19931;-72
2022/08/05 19:34:15;;;;;;;;;;;;;;;;;;10616499;27;19923;-73
2022/08/05 19:39:17;;;;;;;;;;;;;;;;;;10587422;28;20320;-73
2022/08/05 19:44:21;;;;;;;;;;;;;;;;;;10599902;27;20406;-72
2022/08/05 19:49:23;;;;;;;;;;;;;;;;;;10567413;27;19939;-73
2022/08/05 19:54:25;;;;;;;;;;;;;;;;;;10599528;27;20362;-73
2022/08/05 19:59:32;;;;;;;;;;;;;;;;;;10577564;28;19924;-73
2022/08/05 20:04:54;;;;;;;;;;;;;;;;;;10549446;28;20408;-73
2022/08/05 20:09:59;;;;;;;;;;;;;;;;;;10551431;28;20396;-73
2022/08/05 20:15:01;;;;;;;;;;;;;;;;;;10545713;28;19931;-72
2022/08/05 20:20:05;;;;;;;;;;;;;;;;;;10556477;28;19924;-73
2022/08/05 20:25:10;;;;;;;;;;;;;;;;;;10563826;28;19979;-72
2022/08/05 20:30:12;;;;;;;;;;;;;;;;;;10556219;28;19931;-73
2022/08/05 20:35:14;;;;;;;;;;;;;;;;;;10544937;28;19923;-72
2022/08/05 20:40:16;;;;;;;;;;;;;;;;;;10584042;28;20263;-72
2022/08/05 20:45:18;;;;;;;;;;;;;;;;;;10583267;28;19935;-72
2022/08/05 20:50:21;;;;;;;;;;;;;;;;;;10583679;28;20289;-72
2022/08/05 20:55:24;;;;;;;;;;;;;;;;;;10583903;28;20255;-72
2022/08/05 21:00:46;;;;;;;;;;;;;;;;;;10569387;27;19969;-72
2022/08/05 21:05:55;;;;;;;;;;;;;;;;;;10589887;27;19970;-72
2022/08/05 21:10:57;;;;;;;;;;;;;;;;;;10583653;27;20302;-72
2022/08/05 21:15:59;;;;;;;;;;;;;;;;;;10613488;27;19931;-72
2022/08/05 21:21:01;;;;;;;;;;;;;;;;;;10609872;27;19930;-72
2022/08/05 21:26:05;;;;;;;;;;;;;;;;;;10585057;27;19923;-71
2022/08/05 21:31:09;;;;;;;;;;;;;;;;;;10584681;27;20293;-72
2022/08/05 21:36:11;;;;;;;;;;;;;;;;;;10607130;27;20392;-71
2022/08/05 21:41:13;;;;;;;;;;;;;;;;;;10596761;27;19924;-72
2022/08/05 21:46:15;;;;;;;;;;;;;;;;;;10583357;28;19924;-72
2022/08/05 21:51:17;;;;;;;;;;;;;;;;;;10582428;28;20263;-72
2022/08/05 21:56:26;;;;;;;;;;;;;;;;;;10593043;27;19930;-72
2022/08/05 22:01:28;;;;;;;;;;;;;;;;;;10604011;27;19994;-72
2022/08/05 22:06:30;;;;;;;;;;;;;;;;;;10583833;28;19924;-72
2022/08/05 22:11:36;;;;;;;;;;;;;;;;;;10583673;28;19924;-71
2022/08/05 22:16:38;;;;;;;;;;;;;;;;;;10602865;28;19923;-71
2022/08/05 22:21:52;;;;;;;;;;;;;;;;;;10620856;28;20000;-71
2022/08/05 22:32:18;;;;;;;;;;;;;;;;;;10583011;28;19924;-72
2022/08/05 22:37:20;;;;;;;;;;;;;;;;;;10590719;28;19927;-71
2022/08/05 22:42:23;;;;;;;;;;;;;;;;;;10610409;27;19969;-72
2022/08/05 22:47:27;;;;;;;;;;;;;;;;;;10590298;28;19931;-72
2022/08/05 22:52:31;;;;;;;;;;;;;;;;;;10589395;28;19923;-71
2022/08/05 22:57:35;;;;;;;;;;;;;;;;;;10572177;28;19975;-71
2022/08/05 23:02:37;;;;;;;;;;;;;;;;;;10590178;27;19923;-71
2022/08/05 23:07:39;;;;;;;;;;;;;;;;;;10589585;28;19928;-71
2022/08/05 23:12:46;;;;;;;;;;;;;;;;;;10588668;28;20294;-71
2022/08/05 23:17:48;;;;;;;;;;;;;;;;;;10609958;27;19923;-71
2022/08/05 23:23:02;;;;;;;;;;;;;;;;;;10609474;27;19969;-71
2022/08/05 23:28:06;;;;;;;;;;;;;;;;;;10588106;28;20409;-71
2022/08/05 23:33:08;;;;;;;;;;;;;;;;;;10588513;28;19924;-61
2022/08/05 23:38:17;;;;;;;;;;;;;;;;;;10589561;27;19928;-61
2022/08/05 23:43:19;;;;;;;;;;;;;;;;;;10587389;27;19924;-61
2022/08/05 23:48:26;;;;;;;;;;;;;;;;;;10588012;28;19924;-61
2022/08/05 23:53:28;;;;;;;;;;;;;;;;;;10587325;28;19998;-61
2022/08/05 23:58:47;;;;;;;;;;;;;;;;;;10616704;27;19923;-61
